createdAt,value
2017-12-13T00:00:44.050Z,18.08
2017-12-13T00:03:11.682Z,19.87
2017-12-13T00:05:39.961Z,20.75
2017-12-13T00:08:07.576Z,18.60
2017-12-13T00:10:35.101Z,16.30
2017-12-13T00:13:03.699Z,14.05
2017-12-13T00:15:31.209Z,21.55
2017-12-13T00:17:58.709Z,20.67
2017-12-13T00:20:27.065Z,20.15
2017-12-13T00:22:54.603Z,19.27
2017-12-13T00:25:22.930Z,19.33
2017-12-13T00:27:51.191Z,19.52
2017-12-13T00:30:19.176Z,18.45
2017-12-13T00:32:46.734Z,18.67
2017-12-13T00:35:15.835Z,17.35
2017-12-13T00:37:44.060Z,21.42
2017-12-13T00:40:11.703Z,14.02
2017-12-13T00:42:39.601Z,24.15
2017-12-13T00:45:07.238Z,16.33
2017-12-13T00:47:34.717Z,16.30
2017-12-13T00:50:02.357Z,18.80
2017-12-13T00:52:30.774Z,17.50
2017-12-13T00:54:58.807Z,15.75
2017-12-13T00:57:26.495Z,24.87
2017-12-13T00:59:54.907Z,17.00
2017-12-13T01:02:23.940Z,17.85
2017-12-13T01:04:52.435Z,14.70
2017-12-13T01:07:20.162Z,27.87
2017-12-13T01:09:48.930Z,16.08
2017-12-13T01:12:18.204Z,12.57
2017-12-13T01:14:45.686Z,15.57
2017-12-13T01:17:13.165Z,15.45
2017-12-13T01:19:42.650Z,15.63
2017-12-13T01:22:10.181Z,14.87
2017-12-13T01:24:37.666Z,14.82
2017-12-13T01:27:05.579Z,15.10
2017-12-13T01:29:33.557Z,17.05
2017-12-13T01:32:01.570Z,21.87
2017-12-13T01:34:29.093Z,14.77
2017-12-13T01:36:56.592Z,18.23
2017-12-13T01:39:24.114Z,19.12
2017-12-13T01:41:51.620Z,14.50
2017-12-13T01:44:19.098Z,18.80
2017-12-13T01:46:46.592Z,18.30
2017-12-13T01:49:14.472Z,19.95
2017-12-13T01:51:42.350Z,22.08
2017-12-13T01:54:10.229Z,27.02
2017-12-13T01:56:37.789Z,16.80
2017-12-13T01:59:05.262Z,20.00
2017-12-13T02:01:32.740Z,20.58
2017-12-13T02:04:01.071Z,17.50
2017-12-13T02:06:28.692Z,21.35
2017-12-13T02:08:56.212Z,16.70
2017-12-13T02:11:23.744Z,16.02
2017-12-13T02:13:51.601Z,16.77
2017-12-13T02:16:19.214Z,15.82
2017-12-13T02:18:47.034Z,19.12
2017-12-13T02:21:14.516Z,19.30
2017-12-13T02:23:42.107Z,23.20
2017-12-13T02:26:09.696Z,19.37
2017-12-13T02:28:37.211Z,19.42
2017-12-13T02:31:05.450Z,18.05
2017-12-13T02:33:32.946Z,17.37
2017-12-13T02:36:02.665Z,17.90
2017-12-13T02:38:31.026Z,15.98
2017-12-13T02:41:01.793Z,14.98
2017-12-13T02:43:29.294Z,17.70
2017-12-13T02:45:56.770Z,17.25
2017-12-13T02:48:24.267Z,15.23
2017-12-13T02:50:51.747Z,22.85
2017-12-13T02:53:19.230Z,16.67
2017-12-13T02:55:46.763Z,15.70
2017-12-13T02:58:14.238Z,14.68
2017-12-13T03:00:41.723Z,18.58
2017-12-13T03:03:09.746Z,15.18
2017-12-13T03:05:37.348Z,11.75
2017-12-13T03:08:04.850Z,15.25
2017-12-13T03:10:32.754Z,18.65
2017-12-13T03:13:00.599Z,15.15
2017-12-13T03:15:28.086Z,8.73
2017-12-13T03:17:55.578Z,14.02
2017-12-13T03:20:23.819Z,12.32
2017-12-13T03:22:51.306Z,12.20
2017-12-13T03:25:19.285Z,13.98
2017-12-13T03:27:47.971Z,8.75
2017-12-13T03:30:15.510Z,13.82
2017-12-13T03:32:42.985Z,16.02
2017-12-13T03:35:10.531Z,12.80
2017-12-13T03:37:38.570Z,15.73
2017-12-13T03:40:06.229Z,11.50
2017-12-13T03:42:33.720Z,14.13
2017-12-13T03:45:01.297Z,11.60
2017-12-13T03:47:30.196Z,8.93
2017-12-13T03:49:58.569Z,10.35
2017-12-13T03:52:26.941Z,10.15
2017-12-13T03:54:54.542Z,14.32
2017-12-13T03:57:22.030Z,18.55
2017-12-13T03:59:50.019Z,9.13
2017-12-13T04:02:17.582Z,10.85
2017-12-13T04:04:45.810Z,10.38
2017-12-13T04:07:13.290Z,10.88
2017-12-13T04:09:41.151Z,9.18
2017-12-13T04:12:08.646Z,16.20
2017-12-13T04:14:36.316Z,12.85
2017-12-13T04:17:03.860Z,16.52
2017-12-13T04:19:31.420Z,13.00
2017-12-13T04:21:58.893Z,9.95
2017-12-13T04:24:27.165Z,8.98
2017-12-13T04:26:54.658Z,11.23
2017-12-13T04:29:23.013Z,9.98
2017-12-13T04:31:51.654Z,9.52
2017-12-13T04:34:19.238Z,12.43
2017-12-13T04:36:46.780Z,16.05
2017-12-13T04:39:14.906Z,10.88
2017-12-13T04:41:42.498Z,9.48
2017-12-13T04:44:09.979Z,9.68
2017-12-13T04:46:37.470Z,8.18
2017-12-13T04:49:05.711Z,13.50
2017-12-13T04:51:33.181Z,10.35
2017-12-13T04:54:00.714Z,13.07
2017-12-13T04:56:28.486Z,8.05
2017-12-13T04:58:55.963Z,11.35
2017-12-13T05:01:23.458Z,7.37
2017-12-13T05:03:51.800Z,10.43
2017-12-13T05:06:20.180Z,11.82
2017-12-13T05:08:47.792Z,5.00
2017-12-13T05:11:15.660Z,6.45
2017-12-13T05:13:44.166Z,9.77
2017-12-13T05:16:11.712Z,12.25
2017-12-13T05:18:39.311Z,10.05
2017-12-13T05:21:07.597Z,10.13
2017-12-13T05:23:35.085Z,9.77
2017-12-13T05:26:02.570Z,10.25
2017-12-13T05:28:30.084Z,15.82
2017-12-13T05:30:58.347Z,13.80
2017-12-13T05:33:26.264Z,11.35
2017-12-13T05:35:54.051Z,6.37
2017-12-13T05:38:22.131Z,9.85
2017-12-13T05:40:49.677Z,4.65
2017-12-13T05:43:17.161Z,7.68
2017-12-13T05:45:44.659Z,10.98
2017-12-13T05:48:12.300Z,14.48
2017-12-13T05:50:40.541Z,9.85
2017-12-13T05:53:08.049Z,8.23
2017-12-13T05:55:36.291Z,10.00
2017-12-13T05:58:03.783Z,13.52
2017-12-13T06:00:32.055Z,10.05
2017-12-13T06:03:02.145Z,11.63
2017-12-13T06:05:30.421Z,8.40
2017-12-13T06:07:58.460Z,5.70
2017-12-13T06:10:25.934Z,9.95
2017-12-13T06:12:53.413Z,11.60
2017-12-13T06:15:21.770Z,7.80
2017-12-13T06:17:49.653Z,8.43
2017-12-13T06:20:17.817Z,5.90
2017-12-13T06:22:45.351Z,8.85
2017-12-13T06:25:13.202Z,11.55
2017-12-13T06:27:40.763Z,7.95
2017-12-13T06:30:08.373Z,14.70
2017-12-13T06:32:36.006Z,11.18
2017-12-13T06:35:03.561Z,10.10
2017-12-13T06:37:31.467Z,7.78
2017-12-13T06:39:58.950Z,4.87
2017-12-13T06:42:27.026Z,6.45
2017-12-13T06:44:55.298Z,6.85
2017-12-13T06:47:22.774Z,7.03
2017-12-13T06:49:51.095Z,9.73
2017-12-13T06:52:19.690Z,7.32
2017-12-13T06:54:47.171Z,6.22
2017-12-13T06:57:15.211Z,4.57
2017-12-13T06:59:43.052Z,9.18
2017-12-13T07:02:10.650Z,4.97
2017-12-13T07:04:38.248Z,10.07
2017-12-13T07:07:05.856Z,8.27
2017-12-13T07:09:33.478Z,8.05
2017-12-13T07:12:00.961Z,7.57
2017-12-13T07:14:28.927Z,10.07
2017-12-13T07:16:56.814Z,5.40
2017-12-13T07:19:24.305Z,10.40
2017-12-13T07:21:52.134Z,10.82
2017-12-13T07:24:20.006Z,5.18
2017-12-13T07:26:47.488Z,3.45
2017-12-13T07:29:15.758Z,4.97
2017-12-13T07:31:43.237Z,14.10
2017-12-13T07:34:11.594Z,5.93
2017-12-13T07:36:39.107Z,9.23
2017-12-13T07:39:06.577Z,7.00
2017-12-13T07:41:34.067Z,10.77
2017-12-13T07:44:02.033Z,5.80
2017-12-13T07:46:29.526Z,5.65
2017-12-13T07:48:58.398Z,4.85
2017-12-13T07:51:26.686Z,4.90
2017-12-13T07:53:54.941Z,9.00
2017-12-13T07:56:23.632Z,5.78
2017-12-13T07:58:51.230Z,6.62
2017-12-13T08:01:18.722Z,7.97
2017-12-13T08:03:46.611Z,6.87
2017-12-13T08:06:14.903Z,4.97
2017-12-13T08:08:43.286Z,7.50
2017-12-13T08:11:11.341Z,7.03
2017-12-13T08:13:38.870Z,4.05
2017-12-13T08:16:06.827Z,3.90
2017-12-13T08:18:34.733Z,4.05
2017-12-13T08:21:02.708Z,4.30
2017-12-13T08:23:30.231Z,7.40
2017-12-13T08:25:57.910Z,5.90
2017-12-13T08:28:25.411Z,5.93
2017-12-13T08:30:53.739Z,3.90
2017-12-13T08:33:21.408Z,6.30
2017-12-13T08:35:48.885Z,3.67
2017-12-13T08:38:16.419Z,12.02
2017-12-13T08:40:44.039Z,4.65
2017-12-13T08:43:12.389Z,3.97
2017-12-13T08:45:39.910Z,4.18
2017-12-13T08:48:07.422Z,5.43
2017-12-13T08:50:34.904Z,6.12
2017-12-13T08:53:03.263Z,5.55
2017-12-13T08:55:30.824Z,4.55
2017-12-13T08:57:58.781Z,4.50
2017-12-13T09:00:26.270Z,3.42
2017-12-13T09:02:54.537Z,3.28
2017-12-13T09:05:23.301Z,2.55
2017-12-13T09:07:50.831Z,3.20
2017-12-13T09:10:18.348Z,2.85
2017-12-13T09:12:45.881Z,4.78
2017-12-13T09:15:13.406Z,3.42
2017-12-13T09:17:40.991Z,3.22
2017-12-13T09:20:08.736Z,2.55
2017-12-13T09:22:37.068Z,2.03
2017-12-13T09:25:05.369Z,2.90
2017-12-13T09:27:32.951Z,2.40
2017-12-13T09:30:00.425Z,2.53
2017-12-13T09:32:28.019Z,2.42
2017-12-13T09:34:55.664Z,2.35
2017-12-13T09:37:23.209Z,2.35
2017-12-13T09:39:50.888Z,2.12
2017-12-13T09:42:19.233Z,2.95
2017-12-13T09:44:47.220Z,2.60
2017-12-13T09:47:14.760Z,2.15
2017-12-13T09:49:42.298Z,2.17
2017-12-13T09:52:10.255Z,2.92
2017-12-13T09:54:38.557Z,4.22
2017-12-13T09:57:06.227Z,3.08
2017-12-13T09:59:33.769Z,2.25
2017-12-13T10:02:02.526Z,3.53
2017-12-13T10:04:31.420Z,2.42
2017-12-13T10:07:01.108Z,2.33
2017-12-13T10:09:29.809Z,3.05
2017-12-13T10:11:58.159Z,3.03
2017-12-13T10:14:25.646Z,2.83
2017-12-13T10:16:54.456Z,2.40
2017-12-13T10:19:23.207Z,3.15
2017-12-13T10:21:50.775Z,3.78
2017-12-13T10:24:18.651Z,3.92
2017-12-13T10:26:46.978Z,4.37
2017-12-13T10:29:14.530Z,4.10
2017-12-13T10:31:42.351Z,4.18
2017-12-13T10:34:10.001Z,4.18
2017-12-13T10:36:37.554Z,3.53
2017-12-13T10:39:05.466Z,3.92
2017-12-13T10:41:33.069Z,4.00
2017-12-13T10:44:00.867Z,3.53
2017-12-13T10:46:28.387Z,4.30
2017-12-13T10:48:56.017Z,3.95
2017-12-13T10:51:23.531Z,4.60
2017-12-13T10:53:51.027Z,5.32
2017-12-13T10:58:53.620Z,4.75
2017-12-13T11:01:21.217Z,3.97
2017-12-13T11:03:49.854Z,4.47
2017-12-13T11:06:17.381Z,6.12
2017-12-13T11:08:45.372Z,4.60
2017-12-13T11:11:12.910Z,4.93
2017-12-13T11:13:40.798Z,5.45
2017-12-13T11:16:08.368Z,4.65
2017-12-13T11:18:35.926Z,4.72
2017-12-13T11:21:03.471Z,4.18
2017-12-13T11:23:31.015Z,6.65
2017-12-13T11:25:58.509Z,4.85
2017-12-13T11:28:27.277Z,3.53
2017-12-13T11:30:55.010Z,5.20
2017-12-13T11:33:23.458Z,4.45
2017-12-13T11:35:51.614Z,3.75
2017-12-13T11:38:19.484Z,4.65
2017-12-13T11:40:47.812Z,4.85
2017-12-13T11:43:15.663Z,6.95
2017-12-13T11:45:43.237Z,4.60
2017-12-13T11:48:10.754Z,3.60
2017-12-13T11:50:39.148Z,7.40
2017-12-13T11:53:06.690Z,4.57
2017-12-13T11:55:34.207Z,5.78
2017-12-13T11:58:01.866Z,5.28
2017-12-13T12:00:29.433Z,7.22
2017-12-13T12:02:58.017Z,5.82
2017-12-13T12:05:26.316Z,5.95
2017-12-13T12:07:53.856Z,7.18
2017-12-13T12:10:21.443Z,11.15
2017-12-13T12:12:49.073Z,5.80
2017-12-13T12:15:16.591Z,5.87
2017-12-13T12:17:44.074Z,7.90
2017-12-13T12:20:11.551Z,7.32
2017-12-13T12:22:39.067Z,6.00
2017-12-13T12:25:07.006Z,5.03
2017-12-13T12:27:34.498Z,7.50
2017-12-13T12:30:02.021Z,7.15
2017-12-13T12:32:29.579Z,9.23
2017-12-13T12:34:57.952Z,6.40
2017-12-13T12:37:25.534Z,8.65
2017-12-13T12:39:53.846Z,7.15
2017-12-13T12:42:21.408Z,8.02
2017-12-13T12:44:49.349Z,7.68
2017-12-13T12:47:16.965Z,6.03
2017-12-13T12:49:44.492Z,8.77
2017-12-13T12:52:13.085Z,12.13
2017-12-13T12:54:41.794Z,9.10
2017-12-13T12:57:09.357Z,9.32
2017-12-13T12:59:37.586Z,15.25
2017-12-13T13:02:05.156Z,8.07
2017-12-13T13:04:32.800Z,19.37
2017-12-13T13:07:00.377Z,16.20
2017-12-13T13:09:27.973Z,11.07
2017-12-13T13:11:55.546Z,17.75
2017-12-13T13:14:23.194Z,9.45
2017-12-13T13:16:50.694Z,10.57
2017-12-13T13:19:19.087Z,13.05
2017-12-13T13:21:47.382Z,12.82
2017-12-13T13:24:15.278Z,10.32
2017-12-13T13:26:42.776Z,13.00
2017-12-13T13:29:11.132Z,12.18
2017-12-13T13:31:39.534Z,11.65
2017-12-13T13:34:07.189Z,10.02
2017-12-13T13:36:35.125Z,10.68
2017-12-13T13:39:02.948Z,9.85
2017-12-13T13:41:30.481Z,12.40
2017-12-13T13:43:58.953Z,15.20
2017-12-13T13:46:26.572Z,14.18
2017-12-13T13:48:54.561Z,12.45
2017-12-13T13:51:23.222Z,13.10
2017-12-13T13:53:50.706Z,20.12
2017-12-13T13:56:18.392Z,14.68
2017-12-13T13:58:46.155Z,20.00
2017-12-13T14:01:14.023Z,17.73
2017-12-13T14:03:41.766Z,17.00
2017-12-13T14:06:10.455Z,17.08
2017-12-13T14:08:38.295Z,13.93
2017-12-13T14:11:05.889Z,15.20
2017-12-13T14:13:33.382Z,13.40
2017-12-13T14:16:01.642Z,17.75
2017-12-13T14:18:29.258Z,16.73
2017-12-13T14:20:56.764Z,16.02
2017-12-13T14:23:25.110Z,19.52
2017-12-13T14:25:53.591Z,17.95
2017-12-13T14:28:23.768Z,20.33
2017-12-13T14:30:52.452Z,19.77
2017-12-13T14:33:19.990Z,17.20
2017-12-13T14:35:48.721Z,18.27
2017-12-13T14:38:16.287Z,16.65
2017-12-13T14:40:44.716Z,15.77
2017-12-13T14:43:13.247Z,14.90
2017-12-13T14:45:40.973Z,13.05
2017-12-13T14:48:10.343Z,14.40
2017-12-13T14:50:38.716Z,16.10
2017-12-13T14:53:06.967Z,10.00
2017-12-13T14:55:34.740Z,11.18
2017-12-13T14:58:02.497Z,13.43
2017-12-13T15:00:32.136Z,14.50
2017-12-13T15:03:00.428Z,11.20
2017-12-13T15:05:28.224Z,11.95
2017-12-13T15:07:56.536Z,15.20
2017-12-13T15:10:24.066Z,18.02
2017-12-13T15:12:51.627Z,13.35
2017-12-13T15:15:19.231Z,13.68
2017-12-13T15:17:47.610Z,16.67
2017-12-13T15:20:15.123Z,13.35
2017-12-13T15:22:43.782Z,10.88
2017-12-13T15:25:11.722Z,16.77
2017-12-13T15:27:39.642Z,14.70
2017-12-13T15:30:08.464Z,11.77
2017-12-13T15:32:35.983Z,17.17
2017-12-13T15:35:04.322Z,19.35
2017-12-13T15:37:32.223Z,13.27
2017-12-13T15:39:59.792Z,12.10
2017-12-13T15:42:28.124Z,13.75
2017-12-13T15:44:56.480Z,13.32
2017-12-13T15:47:24.033Z,13.73
2017-12-13T15:52:23.366Z,17.70
2017-12-13T15:54:51.004Z,16.05
2017-12-13T15:57:18.727Z,19.05
2017-12-13T15:59:46.246Z,16.83
2017-12-13T16:02:15.576Z,12.20
2017-12-13T16:04:43.106Z,17.52
2017-12-13T16:07:10.619Z,19.75
2017-12-13T16:09:38.968Z,14.85
2017-12-13T16:12:06.592Z,9.13
2017-12-13T16:14:34.154Z,12.68
2017-12-13T16:17:01.687Z,9.73
2017-12-13T16:19:29.963Z,14.50
2017-12-13T16:21:58.318Z,18.83
2017-12-13T16:24:26.447Z,10.43
2017-12-13T16:26:53.972Z,13.10
2017-12-13T16:29:23.128Z,13.50
2017-12-13T16:31:51.001Z,19.50
2017-12-13T16:34:19.682Z,14.93
2017-12-13T16:36:47.190Z,14.50
2017-12-13T16:39:14.802Z,11.00
2017-12-13T16:41:42.342Z,12.43
2017-12-13T16:44:09.822Z,13.40
2017-12-13T16:46:37.342Z,11.70
2017-12-13T16:49:05.217Z,13.07
2017-12-13T16:51:32.831Z,21.02
2017-12-13T16:54:00.342Z,13.57
2017-12-13T16:56:28.680Z,13.13
2017-12-13T16:58:56.293Z,24.10
2017-12-13T17:01:23.928Z,18.00
2017-12-13T17:03:51.517Z,15.05
2017-12-13T17:06:19.118Z,19.62
2017-12-13T17:08:46.998Z,20.20
2017-12-13T17:11:15.387Z,16.10
2017-12-13T17:13:43.307Z,18.45
2017-12-13T17:16:10.837Z,23.35
2017-12-13T17:18:38.322Z,16.87
2017-12-13T17:21:06.059Z,22.87
2017-12-13T17:23:33.962Z,19.73
2017-12-13T17:26:01.488Z,14.57
2017-12-13T17:28:29.088Z,23.05
2017-12-13T17:30:58.403Z,23.10
2017-12-13T17:33:26.399Z,17.65
2017-12-13T17:35:53.958Z,14.55
2017-12-13T17:38:22.595Z,22.15
2017-12-13T17:40:50.540Z,19.00
2017-12-13T17:43:18.462Z,18.02
2017-12-13T17:45:45.930Z,21.58
2017-12-13T17:48:13.796Z,18.17
2017-12-13T17:50:42.668Z,23.55
2017-12-13T17:53:10.229Z,22.95
2017-12-13T17:55:37.727Z,26.92
2017-12-13T17:58:05.329Z,26.52
2017-12-13T18:00:32.810Z,28.60
2017-12-13T18:03:00.316Z,17.33
2017-12-13T18:05:28.298Z,32.42
2017-12-13T18:07:55.807Z,27.80
2017-12-13T18:10:23.307Z,26.85
2017-12-13T18:12:50.823Z,26.48
2017-12-13T18:15:19.074Z,24.17
2017-12-13T18:17:46.903Z,28.00
2017-12-13T18:20:14.422Z,16.62
2017-12-13T18:22:43.977Z,19.95
2017-12-13T18:25:11.593Z,28.20
2017-12-13T18:27:39.866Z,31.15
2017-12-13T18:30:08.150Z,22.65
2017-12-13T18:32:37.194Z,18.95
2017-12-13T18:35:04.710Z,29.05
2017-12-13T18:37:33.091Z,22.70
2017-12-13T18:40:00.617Z,21.25
2017-12-13T18:42:31.261Z,24.85
2017-12-13T18:45:07.127Z,16.42
2017-12-13T18:47:34.840Z,19.80
2017-12-13T18:50:10.280Z,21.02
2017-12-13T18:52:38.380Z,22.50
2017-12-13T18:55:06.670Z,15.85
2017-12-13T18:57:35.914Z,14.48
2017-12-13T19:00:03.561Z,14.18
2017-12-13T19:02:31.050Z,16.65
2017-12-13T19:04:58.539Z,25.12
2017-12-13T19:07:26.383Z,12.00
2017-12-13T19:09:55.224Z,12.63
2017-12-13T19:12:23.038Z,14.63
2017-12-13T19:17:25.246Z,16.52
2017-12-13T19:19:52.757Z,15.13
2017-12-13T19:22:20.238Z,16.55
2017-12-13T19:24:47.726Z,10.57
2017-12-13T19:27:15.241Z,12.60
2017-12-13T19:29:42.722Z,7.18
2017-12-13T19:32:10.270Z,7.95
2017-12-13T19:34:37.781Z,5.82
2017-12-13T19:37:06.029Z,3.58
2017-12-13T19:39:33.518Z,4.28
2017-12-13T19:42:01.107Z,4.45
2017-12-13T19:44:28.582Z,2.35
2017-12-13T19:46:56.064Z,2.22
2017-12-13T19:49:23.635Z,3.87
2017-12-13T19:51:51.142Z,2.08
2017-12-13T19:56:53.058Z,2.37
2017-12-13T19:59:20.530Z,2.78
2017-12-13T20:01:48.010Z,2.78
2017-12-13T20:04:15.524Z,2.30
2017-12-13T20:06:42.998Z,1.92
2017-12-13T20:09:10.472Z,1.80
2017-12-13T20:11:38.741Z,3.28
2017-12-13T20:14:07.394Z,2.28
2017-12-13T20:16:34.963Z,3.15
2017-12-13T20:19:02.454Z,4.28
2017-12-13T20:21:30.702Z,2.05
2017-12-13T20:23:58.220Z,2.10
2017-12-13T20:26:25.741Z,6.87
2017-12-13T20:28:53.986Z,7.47
2017-12-13T20:31:21.470Z,4.20
2017-12-13T20:33:49.302Z,6.95
2017-12-13T20:36:17.181Z,5.43
2017-12-13T20:38:44.954Z,4.55
2017-12-13T20:41:12.426Z,4.07
2017-12-13T20:43:39.938Z,6.53
2017-12-13T20:46:08.229Z,7.15
2017-12-13T20:48:36.576Z,4.57
2017-12-13T20:51:04.055Z,5.90
2017-12-13T20:53:31.530Z,10.80
2017-12-13T20:55:59.020Z,6.10
2017-12-13T20:58:26.743Z,4.45
2017-12-13T21:00:54.300Z,3.37
2017-12-13T21:03:21.900Z,2.28
2017-12-13T21:05:50.526Z,10.55
2017-12-13T21:08:18.022Z,7.50
2017-12-13T21:10:45.606Z,8.30
2017-12-13T21:13:13.850Z,4.35
2017-12-13T21:15:41.331Z,6.57
2017-12-13T21:18:08.835Z,4.15
2017-12-13T21:20:36.310Z,6.18
2017-12-13T21:23:03.786Z,9.60
2017-12-13T21:25:31.350Z,9.73
2017-12-13T21:27:58.826Z,3.85
2017-12-13T21:30:26.554Z,6.12
2017-12-13T21:32:54.212Z,7.37
2017-12-13T21:35:21.989Z,6.15
2017-12-13T21:37:49.458Z,7.03
2017-12-13T21:40:17.306Z,8.07
2017-12-13T21:42:44.868Z,6.20
2017-12-13T21:45:12.359Z,8.73
2017-12-13T21:47:39.847Z,6.25
2017-12-13T21:50:07.350Z,6.12
2017-12-13T21:52:34.845Z,6.93
2017-12-13T21:55:03.126Z,9.88
2017-12-13T21:57:31.373Z,7.62
2017-12-13T21:59:58.858Z,5.18
2017-12-13T22:02:27.145Z,4.37
2017-12-13T22:04:54.622Z,4.03
2017-12-13T22:07:22.414Z,6.50
2017-12-13T22:09:50.286Z,4.85
2017-12-13T22:12:17.840Z,9.57
2017-12-13T22:14:45.314Z,9.13
2017-12-13T22:17:12.819Z,13.00
2017-12-13T22:19:40.409Z,6.25
2017-12-13T22:22:07.886Z,5.43
2017-12-13T22:24:35.374Z,3.60
2017-12-13T22:27:03.643Z,6.00
2017-12-13T22:29:31.894Z,5.12
2017-12-13T22:31:59.379Z,10.52
2017-12-13T22:34:27.719Z,3.20
2017-12-13T22:36:55.595Z,2.62
2017-12-13T22:39:23.086Z,7.97
2017-12-13T22:41:51.359Z,5.57
2017-12-13T22:44:18.830Z,6.50
2017-12-13T22:46:47.366Z,6.25
2017-12-13T22:49:15.268Z,5.15
2017-12-13T22:51:43.925Z,7.47
2017-12-13T22:54:11.419Z,5.80
2017-12-13T22:56:39.661Z,4.50
2017-12-13T22:59:07.138Z,2.83
2017-12-13T23:01:35.499Z,3.83
2017-12-13T23:04:03.007Z,4.45
2017-12-13T23:06:30.486Z,3.50
2017-12-13T23:08:57.969Z,6.32
2017-12-13T23:11:25.465Z,8.98
2017-12-13T23:13:54.020Z,6.43
2017-12-13T23:16:21.541Z,4.90
2017-12-13T23:18:49.390Z,4.45
2017-12-13T23:21:16.862Z,5.60
2017-12-13T23:23:44.357Z,12.70
2017-12-13T23:26:11.862Z,11.63
2017-12-13T23:28:39.464Z,8.13
2017-12-13T23:31:06.965Z,10.43
2017-12-13T23:33:35.205Z,4.50
2017-12-13T23:38:36.966Z,5.25
2017-12-13T23:41:04.438Z,5.90
2017-12-13T23:43:31.961Z,11.20
2017-12-13T23:45:59.434Z,4.75
2017-12-13T23:48:27.709Z,5.82
2017-12-13T23:50:55.587Z,5.95
2017-12-13T23:53:23.071Z,6.20
2017-12-13T23:55:51.430Z,7.40
2017-12-13T23:58:19.346Z,9.15
